createdAt,value
2018-01-23T00:00:51.741Z,0
2018-01-23T00:01:52.395Z,0
2018-01-23T00:02:53.054Z,0
2018-01-23T00:03:53.712Z,0
2018-01-23T00:04:54.369Z,0
2018-01-23T00:05:55.027Z,0
2018-01-23T00:06:55.685Z,0
2018-01-23T00:07:56.343Z,0
2018-01-23T00:08:57.004Z,0
2018-01-23T00:09:57.656Z,0
2018-01-23T00:10:58.314Z,0
2018-01-23T00:11:58.971Z,0
2018-01-23T00:12:59.628Z,0
2018-01-23T00:14:00.283Z,0
2018-01-23T00:15:00.941Z,0
2018-01-23T00:16:01.599Z,0
2018-01-23T00:17:02.255Z,0
2018-01-23T00:18:02.913Z,0
2018-01-23T00:19:03.570Z,0
2018-01-23T00:20:04.226Z,0
2018-01-23T00:21:04.884Z,0
2018-01-23T00:22:05.541Z,0
2018-01-23T00:23:06.199Z,0
2018-01-23T00:24:06.858Z,0
2018-01-23T00:25:07.515Z,0
2018-01-23T00:26:08.172Z,0
2018-01-23T00:27:08.830Z,0
2018-01-23T00:28:09.488Z,0
2018-01-23T00:29:10.146Z,0
2018-01-23T00:30:10.804Z,0
2018-01-23T00:31:11.461Z,0
2018-01-23T00:32:12.119Z,0
2018-01-23T00:33:12.811Z,0
2018-01-23T00:34:13.466Z,0
2018-01-23T00:35:14.125Z,0
2018-01-23T00:36:14.782Z,0
2018-01-23T00:37:15.440Z,0
2018-01-23T00:38:16.096Z,0
2018-01-23T00:39:16.754Z,0
2018-01-23T00:40:17.445Z,0
2018-01-23T00:41:18.105Z,0
2018-01-23T00:42:18.760Z,0
2018-01-23T00:43:19.420Z,0
2018-01-23T00:44:20.077Z,0
2018-01-23T00:45:20.735Z,0
2018-01-23T00:46:21.394Z,0
2018-01-23T00:47:22.052Z,0
2018-01-23T00:48:22.711Z,0
2018-01-23T00:49:23.371Z,0
2018-01-23T00:50:24.028Z,0
2018-01-23T00:51:24.687Z,0
2018-01-23T00:52:25.344Z,0
2018-01-23T00:53:26.000Z,0
2018-01-23T00:54:26.656Z,0
2018-01-23T00:55:27.312Z,0
2018-01-23T00:56:27.967Z,0
2018-01-23T00:57:28.623Z,0
2018-01-23T00:58:29.280Z,0
2018-01-23T00:59:29.937Z,0
2018-01-23T01:00:30.593Z,0
2018-01-23T01:01:31.252Z,0
2018-01-23T01:02:31.906Z,0
2018-01-23T01:03:32.562Z,0
2018-01-23T01:04:33.223Z,0
2018-01-23T01:05:33.877Z,0
2018-01-23T01:06:34.535Z,0
2018-01-23T01:07:35.194Z,0
2018-01-23T01:08:35.852Z,0
2018-01-23T01:09:36.512Z,0
2018-01-23T01:10:37.205Z,0
2018-01-23T01:11:37.865Z,0
2018-01-23T01:12:38.517Z,0
2018-01-23T01:13:39.173Z,0
2018-01-23T01:14:39.828Z,0
2018-01-23T01:15:40.487Z,0
2018-01-23T01:16:41.144Z,0
2018-01-23T01:17:41.836Z,0
2018-01-23T01:18:42.527Z,0
2018-01-23T01:19:43.186Z,0
2018-01-23T01:20:43.845Z,0
2018-01-23T01:21:44.504Z,0
2018-01-23T01:22:45.162Z,0
2018-01-23T01:23:45.821Z,0
2018-01-23T01:24:46.478Z,0
2018-01-23T01:25:47.137Z,0
2018-01-23T01:26:47.796Z,0
2018-01-23T01:27:48.454Z,0
2018-01-23T01:28:49.110Z,0
2018-01-23T01:29:49.766Z,0
2018-01-23T01:30:50.422Z,0
2018-01-23T01:31:51.078Z,0
2018-01-23T01:32:51.734Z,0
2018-01-23T01:33:52.392Z,0
2018-01-23T01:34:53.047Z,0
2018-01-23T01:35:53.705Z,0
2018-01-23T01:36:54.363Z,0
2018-01-23T01:37:55.021Z,0
2018-01-23T01:38:55.678Z,0
2018-01-23T01:39:56.334Z,0
2018-01-23T01:40:56.993Z,0
2018-01-23T01:41:57.651Z,0
2018-01-23T01:42:58.313Z,0
2018-01-23T01:43:58.970Z,0
2018-01-23T01:44:59.628Z,0
2018-01-23T01:46:00.287Z,0
2018-01-23T01:47:00.946Z,0
2018-01-23T01:48:01.604Z,0
2018-01-23T01:49:02.262Z,0
2018-01-23T01:50:02.922Z,0
2018-01-23T01:51:03.580Z,0
2018-01-23T01:52:04.240Z,0
2018-01-23T01:53:04.900Z,0
2018-01-23T01:54:05.559Z,0
2018-01-23T01:55:06.218Z,0
2018-01-23T01:56:06.877Z,0
2018-01-23T01:57:07.536Z,0
2018-01-23T01:58:08.195Z,0
2018-01-23T01:59:08.854Z,0
2018-01-23T02:00:09.513Z,0
2018-01-23T02:01:10.174Z,0
2018-01-23T02:02:10.832Z,0
2018-01-23T02:03:11.493Z,0
2018-01-23T02:04:12.188Z,0
2018-01-23T02:05:12.850Z,0
2018-01-23T02:06:13.510Z,0
2018-01-23T02:07:14.169Z,0
2018-01-23T02:08:14.829Z,0
2018-01-23T02:09:15.527Z,0
2018-01-23T02:10:16.186Z,0
2018-01-23T02:11:16.846Z,0
2018-01-23T02:12:17.505Z,0
2018-01-23T02:13:18.202Z,0
2018-01-23T02:14:18.862Z,0
2018-01-23T02:15:19.519Z,0
2018-01-23T02:16:20.226Z,0
2018-01-23T02:17:20.833Z,0
2018-01-23T02:18:21.492Z,0
2018-01-23T02:19:22.151Z,0
2018-01-23T02:20:22.808Z,0
2018-01-23T02:21:23.467Z,0
2018-01-23T02:22:24.125Z,0
2018-01-23T02:23:24.783Z,0
2018-01-23T02:24:25.444Z,0
2018-01-23T02:25:26.101Z,0
2018-01-23T02:26:26.760Z,0
2018-01-23T02:27:27.419Z,0
2018-01-23T02:28:28.078Z,0
2018-01-23T02:29:28.736Z,0
2018-01-23T02:30:29.395Z,0
2018-01-23T02:31:30.053Z,0
2018-01-23T02:32:30.712Z,0
2018-01-23T02:33:31.372Z,0
2018-01-23T02:34:32.030Z,0
2018-01-23T02:35:32.690Z,0
2018-01-23T02:36:33.350Z,0
2018-01-23T02:37:34.009Z,0
2018-01-23T02:38:34.669Z,0
2018-01-23T02:39:35.326Z,0
2018-01-23T02:40:35.983Z,0
2018-01-23T02:41:36.643Z,0
2018-01-23T02:42:37.303Z,0
2018-01-23T02:43:37.962Z,0
2018-01-23T02:44:38.622Z,0
2018-01-23T02:45:39.280Z,0
2018-01-23T02:46:39.939Z,0
2018-01-23T02:47:40.598Z,0
2018-01-23T02:48:41.257Z,0
2018-01-23T02:49:41.916Z,0
2018-01-23T02:50:42.611Z,0
2018-01-23T02:51:43.270Z,0
2018-01-23T02:52:43.928Z,0
2018-01-23T02:53:44.588Z,0
2018-01-23T02:54:45.248Z,0
2018-01-23T02:55:45.908Z,0
2018-01-23T02:56:46.567Z,0
2018-01-23T02:57:47.225Z,0
2018-01-23T02:58:47.885Z,0
2018-01-23T02:59:48.545Z,0
2018-01-23T03:00:49.205Z,0
2018-01-23T03:01:49.864Z,0
2018-01-23T03:02:50.524Z,0
2018-01-23T03:03:51.184Z,0
2018-01-23T03:04:51.844Z,0
2018-01-23T03:05:52.503Z,0
2018-01-23T03:06:53.161Z,0
2018-01-23T03:07:53.820Z,0
2018-01-23T03:08:54.480Z,0
2018-01-23T03:09:55.139Z,0
2018-01-23T03:10:55.798Z,0
2018-01-23T03:11:56.457Z,0
2018-01-23T03:12:57.116Z,0
2018-01-23T03:13:57.778Z,0
2018-01-23T03:14:58.434Z,0
2018-01-23T03:15:59.093Z,0
2018-01-23T03:16:59.752Z,0
2018-01-23T03:18:00.411Z,0
2018-01-23T03:19:01.069Z,0
2018-01-23T03:20:01.779Z,0
2018-01-23T03:21:02.437Z,0
2018-01-23T03:22:03.095Z,0
2018-01-23T03:23:03.754Z,0
2018-01-23T03:24:04.413Z,0
2018-01-23T03:25:05.072Z,0
2018-01-23T03:26:05.731Z,0
2018-01-23T03:27:06.395Z,0
2018-01-23T03:28:07.053Z,0
2018-01-23T03:29:07.705Z,0
2018-01-23T03:30:08.364Z,0
2018-01-23T03:31:09.058Z,0
2018-01-23T03:32:09.717Z,0
2018-01-23T03:33:10.376Z,0
2018-01-23T03:34:11.035Z,0
2018-01-23T03:35:11.695Z,0
2018-01-23T03:36:12.355Z,0
2018-01-23T03:37:13.016Z,0
2018-01-23T03:38:13.672Z,0
2018-01-23T03:39:14.330Z,0
2018-01-23T03:40:14.991Z,0
2018-01-23T03:41:15.651Z,0
2018-01-23T03:42:16.309Z,0
2018-01-23T03:43:16.967Z,0
2018-01-23T03:44:17.626Z,0
2018-01-23T03:45:18.286Z,0
2018-01-23T03:46:18.945Z,0
2018-01-23T03:47:19.605Z,0
2018-01-23T03:48:20.265Z,0
2018-01-23T03:49:20.922Z,0
2018-01-23T03:50:21.582Z,0
2018-01-23T03:51:22.241Z,0
2018-01-23T03:52:22.935Z,0
2018-01-23T03:53:23.594Z,0
2018-01-23T03:54:24.253Z,0
2018-01-23T03:55:24.913Z,0
2018-01-23T03:56:25.573Z,0
2018-01-23T03:57:26.233Z,0
2018-01-23T03:58:26.892Z,0
2018-01-23T03:59:27.552Z,0
2018-01-23T04:00:28.212Z,0
2018-01-23T04:01:28.872Z,0
2018-01-23T04:02:29.531Z,0
2018-01-23T04:03:30.192Z,0
2018-01-23T04:04:30.851Z,0
2018-01-23T04:05:31.509Z,0
2018-01-23T04:06:32.181Z,0
2018-01-23T04:07:32.826Z,0
2018-01-23T04:08:33.485Z,0
2018-01-23T04:09:34.145Z,0
2018-01-23T04:10:34.804Z,0
2018-01-23T04:11:35.466Z,0
2018-01-23T04:12:36.120Z,0
2018-01-23T04:13:36.778Z,0
2018-01-23T04:14:37.438Z,0
2018-01-23T04:15:38.098Z,0
2018-01-23T04:16:38.758Z,0
2018-01-23T04:17:39.417Z,0
2018-01-23T04:18:40.076Z,0
2018-01-23T04:19:40.735Z,0
2018-01-23T04:20:41.393Z,0
2018-01-23T04:21:42.055Z,0
2018-01-23T04:22:42.746Z,0
2018-01-23T04:23:43.406Z,0
2018-01-23T04:24:44.065Z,0
2018-01-23T04:25:44.725Z,0
2018-01-23T04:26:45.385Z,0
2018-01-23T04:27:46.043Z,0
2018-01-23T04:28:46.703Z,0
2018-01-23T04:29:47.361Z,0
2018-01-23T04:30:48.020Z,0
2018-01-23T04:31:48.680Z,0
2018-01-23T04:32:49.342Z,0
2018-01-23T04:33:50.036Z,0
2018-01-23T04:34:50.694Z,0
2018-01-23T04:35:51.354Z,0
2018-01-23T04:36:52.014Z,0
2018-01-23T04:37:52.674Z,0
2018-01-23T04:38:53.333Z,0
2018-01-23T04:39:53.993Z,0
2018-01-23T04:40:54.652Z,0
2018-01-23T04:41:55.309Z,0
2018-01-23T04:42:55.968Z,0
2018-01-23T04:43:56.628Z,0
2018-01-23T04:44:57.287Z,0
2018-01-23T04:45:57.947Z,0
2018-01-23T04:46:58.608Z,0
2018-01-23T04:47:59.265Z,0
2018-01-23T04:48:59.926Z,0
2018-01-23T04:50:00.586Z,0
2018-01-23T04:51:01.247Z,0
2018-01-23T04:52:01.905Z,0
2018-01-23T04:53:02.562Z,0
2018-01-23T04:54:03.221Z,0
2018-01-23T04:55:03.881Z,0
2018-01-23T04:56:04.541Z,0
2018-01-23T04:57:05.200Z,0
2018-01-23T04:58:05.858Z,0
2018-01-23T04:59:06.518Z,0
2018-01-23T05:00:07.177Z,0
2018-01-23T05:01:07.841Z,0
2018-01-23T05:02:08.495Z,0
2018-01-23T05:03:09.152Z,0
2018-01-23T05:04:09.812Z,0
2018-01-23T05:05:10.471Z,0
2018-01-23T05:06:11.130Z,0
2018-01-23T05:07:11.825Z,0
2018-01-23T05:08:12.485Z,0
2018-01-23T05:09:13.145Z,0
2018-01-23T05:10:13.803Z,0
2018-01-23T05:11:14.463Z,0
2018-01-23T05:12:15.123Z,0
2018-01-23T05:13:15.782Z,0
2018-01-23T05:14:16.441Z,0
2018-01-23T05:15:17.103Z,0
2018-01-23T05:16:17.762Z,0
2018-01-23T05:17:18.421Z,0
2018-01-23T05:18:19.079Z,0
2018-01-23T05:19:19.739Z,0
2018-01-23T05:20:20.399Z,0
2018-01-23T05:21:21.059Z,0
2018-01-23T05:22:21.717Z,0
2018-01-23T05:23:22.376Z,0
2018-01-23T05:24:23.035Z,0
2018-01-23T05:25:23.695Z,0
2018-01-23T05:26:24.353Z,0
2018-01-23T05:27:25.012Z,0
2018-01-23T05:28:25.671Z,0
2018-01-23T05:29:26.330Z,0
2018-01-23T05:30:27.025Z,0
2018-01-23T05:31:27.686Z,0
2018-01-23T05:32:28.346Z,0
2018-01-23T05:33:29.006Z,0
2018-01-23T05:34:29.664Z,0
2018-01-23T05:35:30.325Z,0
2018-01-23T05:36:30.984Z,0
2018-01-23T05:37:31.643Z,0
2018-01-23T05:38:32.303Z,0
2018-01-23T05:39:32.999Z,0
2018-01-23T05:40:33.658Z,0
2018-01-23T05:41:34.318Z,0
2018-01-23T05:42:34.978Z,0
2018-01-23T05:43:35.638Z,0
2018-01-23T05:44:36.300Z,0
2018-01-23T05:45:36.959Z,0
2018-01-23T05:46:37.618Z,0
2018-01-23T05:47:38.278Z,0
2018-01-23T05:48:38.939Z,0
2018-01-23T05:49:39.604Z,0
2018-01-23T05:50:40.292Z,0
2018-01-23T05:51:40.954Z,0
2018-01-23T05:52:41.612Z,0
2018-01-23T05:53:42.271Z,0
2018-01-23T05:54:42.931Z,0
2018-01-23T05:55:43.626Z,0
2018-01-23T05:56:44.284Z,0
2018-01-23T05:57:44.945Z,0
2018-01-23T05:58:45.604Z,0
2018-01-23T05:59:46.265Z,0
2018-01-23T06:00:46.923Z,0
2018-01-23T06:01:47.583Z,0
2018-01-23T06:02:48.242Z,0
2018-01-23T06:03:48.902Z,0
2018-01-23T06:04:49.566Z,0
2018-01-23T06:05:50.220Z,0
2018-01-23T06:06:50.880Z,0
2018-01-23T06:07:51.541Z,0
2018-01-23T06:08:52.200Z,0
2018-01-23T06:09:52.861Z,0
2018-01-23T06:10:53.519Z,0
2018-01-23T06:11:54.178Z,0
2018-01-23T06:12:54.837Z,0
2018-01-23T06:13:55.496Z,0
2018-01-23T06:14:56.155Z,0
2018-01-23T06:15:56.815Z,0
2018-01-23T06:16:57.473Z,0
2018-01-23T06:17:58.132Z,0
2018-01-23T06:18:58.793Z,0
2018-01-23T06:19:59.450Z,0
2018-01-23T06:21:00.111Z,0
2018-01-23T06:22:00.770Z,0
2018-01-23T06:23:01.465Z,0
2018-01-23T06:24:02.124Z,0
2018-01-23T06:25:02.784Z,0
2018-01-23T06:26:03.443Z,0
2018-01-23T06:27:04.102Z,0
2018-01-23T06:28:04.763Z,0
2018-01-23T06:29:05.422Z,0
2018-01-23T06:30:06.081Z,0
2018-01-23T06:31:06.740Z,0
2018-01-23T06:32:07.402Z,0
2018-01-23T06:33:08.059Z,0
2018-01-23T06:34:08.718Z,0
2018-01-23T06:35:09.376Z,0
2018-01-23T06:36:10.034Z,0
2018-01-23T06:37:10.694Z,0
2018-01-23T06:38:11.353Z,0
2018-01-23T06:39:12.012Z,0
2018-01-23T06:40:12.671Z,0
2018-01-23T06:41:13.330Z,0
2018-01-23T06:42:14.035Z,0
2018-01-23T06:43:14.648Z,0
2018-01-23T06:44:15.307Z,0
2018-01-23T06:45:15.968Z,0
2018-01-23T06:46:16.627Z,0
2018-01-23T06:47:17.287Z,0
2018-01-23T06:48:17.946Z,0
2018-01-23T06:49:18.606Z,0
2018-01-23T06:50:19.265Z,0
2018-01-23T06:51:19.925Z,0
2018-01-23T06:52:20.585Z,0
2018-01-23T06:53:21.245Z,0
2018-01-23T06:54:21.905Z,0
2018-01-23T06:55:22.564Z,0
2018-01-23T06:56:23.223Z,0
2018-01-23T06:57:23.884Z,0
2018-01-23T06:58:24.543Z,0
2018-01-23T06:59:25.207Z,0
2018-01-23T07:00:25.900Z,0
2018-01-23T07:01:26.558Z,0
2018-01-23T07:02:27.219Z,0
2018-01-23T07:03:27.878Z,0
2018-01-23T07:04:28.538Z,0
2018-01-23T07:05:29.197Z,0
2018-01-23T07:06:29.856Z,0
2018-01-23T07:07:30.517Z,0
2018-01-23T07:08:31.178Z,0
2018-01-23T07:09:31.841Z,0
2018-01-23T07:10:32.505Z,0
2018-01-23T07:11:33.167Z,5
2018-01-23T07:12:33.828Z,5
2018-01-23T07:13:34.487Z,5
2018-01-23T07:14:35.148Z,5
2018-01-23T07:15:35.809Z,5
2018-01-23T07:16:36.471Z,5
2018-01-23T07:17:37.183Z,5
2018-01-23T07:18:37.844Z,5
2018-01-23T07:19:38.505Z,5
2018-01-23T07:20:39.183Z,5
2018-01-23T07:21:39.828Z,5
2018-01-23T07:22:40.490Z,11
2018-01-23T07:23:41.154Z,11
2018-01-23T07:24:41.818Z,11
2018-01-23T07:25:42.481Z,11
2018-01-23T07:26:43.146Z,11
2018-01-23T07:27:43.840Z,11
2018-01-23T07:28:44.502Z,11
2018-01-23T07:29:45.163Z,11
2018-01-23T07:30:45.827Z,11
2018-01-23T07:31:46.490Z,11
2018-01-23T07:32:47.153Z,11
2018-01-23T07:33:47.816Z,11
2018-01-23T07:34:48.478Z,11
2018-01-23T07:35:49.140Z,11
2018-01-23T07:36:49.803Z,11
2018-01-23T07:37:50.498Z,11
2018-01-23T07:38:51.132Z,16
2018-01-23T07:39:51.795Z,16
2018-01-23T07:40:52.457Z,16
2018-01-23T07:41:53.120Z,16
2018-01-23T07:42:53.784Z,16
2018-01-23T07:43:54.448Z,16
2018-01-23T07:44:55.146Z,16
2018-01-23T07:45:55.811Z,16
2018-01-23T07:46:56.472Z,22
2018-01-23T07:47:57.135Z,22
2018-01-23T07:48:57.797Z,22
2018-01-23T07:49:58.460Z,22
2018-01-23T07:50:59.124Z,28
2018-01-23T07:51:59.788Z,28
2018-01-23T07:53:00.451Z,28
2018-01-23T07:54:01.113Z,28
2018-01-23T07:55:01.775Z,28
2018-01-23T07:56:02.440Z,28
2018-01-23T07:57:03.101Z,33
2018-01-23T07:58:03.764Z,33
2018-01-23T07:59:04.428Z,33
2018-01-23T08:00:05.091Z,33
2018-01-23T08:01:05.777Z,33
2018-01-23T08:02:06.420Z,33
2018-01-23T08:03:07.120Z,39
2018-01-23T08:04:07.785Z,39
2018-01-23T08:05:08.486Z,45
2018-01-23T08:06:09.151Z,39
2018-01-23T08:07:09.814Z,39
2018-01-23T08:08:10.480Z,39
2018-01-23T08:09:11.144Z,39
2018-01-23T08:10:11.808Z,39
2018-01-23T08:11:12.472Z,45
2018-01-23T08:12:13.135Z,50
2018-01-23T08:13:13.802Z,50
2018-01-23T08:14:14.466Z,56
2018-01-23T08:15:15.129Z,56
2018-01-23T08:16:15.793Z,50
2018-01-23T08:17:16.459Z,50
2018-01-23T08:18:17.123Z,50
2018-01-23T08:19:17.792Z,56
2018-01-23T08:20:18.455Z,61
2018-01-23T08:21:19.114Z,61
2018-01-23T08:22:19.831Z,56
2018-01-23T08:23:20.470Z,56
2018-01-23T08:24:21.134Z,56
2018-01-23T08:25:21.798Z,56
2018-01-23T08:26:22.462Z,61
2018-01-23T08:27:23.128Z,61
2018-01-23T08:28:23.794Z,67
2018-01-23T08:29:24.461Z,73
2018-01-23T08:30:25.122Z,73
2018-01-23T08:31:25.787Z,73
2018-01-23T08:32:26.452Z,73
2018-01-23T08:33:27.117Z,67
2018-01-23T08:34:27.781Z,56
2018-01-23T08:35:28.447Z,45
2018-01-23T08:36:29.112Z,39
2018-01-23T08:37:29.776Z,39
2018-01-23T08:38:30.442Z,45
2018-01-23T08:39:31.109Z,50
2018-01-23T08:40:31.806Z,45
2018-01-23T08:41:32.472Z,39
2018-01-23T08:42:33.136Z,39
2018-01-23T08:43:33.801Z,45
2018-01-23T08:44:34.464Z,45
2018-01-23T08:45:35.129Z,45
2018-01-23T08:46:35.794Z,39
2018-01-23T08:47:36.497Z,33
2018-01-23T08:48:37.122Z,39
2018-01-23T08:49:37.787Z,39
2018-01-23T08:50:38.453Z,33
2018-01-23T08:51:39.117Z,33
2018-01-23T08:52:39.782Z,33
2018-01-23T08:53:40.446Z,39
2018-01-23T08:54:41.111Z,39
2018-01-23T08:55:41.776Z,45
2018-01-23T08:56:42.445Z,39
2018-01-23T08:57:43.117Z,45
2018-01-23T08:58:43.770Z,56
2018-01-23T08:59:44.435Z,67
2018-01-23T09:00:45.135Z,73
2018-01-23T09:01:45.803Z,78
2018-01-23T09:02:46.500Z,78
2018-01-23T09:03:47.165Z,67
2018-01-23T09:04:47.828Z,67
2018-01-23T09:05:48.493Z,67
2018-01-23T09:06:49.160Z,67
2018-01-23T09:07:49.825Z,61
2018-01-23T09:08:50.490Z,78
2018-01-23T09:09:51.155Z,90
2018-01-23T09:10:51.820Z,90
2018-01-23T09:11:52.486Z,95
2018-01-23T09:12:53.151Z,106
2018-01-23T09:13:53.816Z,106
2018-01-23T09:14:54.483Z,106
2018-01-23T09:15:55.149Z,95
2018-01-23T09:16:55.816Z,90
2018-01-23T09:17:56.478Z,78
2018-01-23T09:18:57.142Z,95
2018-01-23T09:19:57.808Z,112
2018-01-23T09:20:58.476Z,123
2018-01-23T09:21:59.140Z,135
2018-01-23T09:22:59.806Z,140
2018-01-23T09:24:00.471Z,151
2018-01-23T09:25:01.141Z,146
2018-01-23T09:26:01.805Z,129
2018-01-23T09:27:02.471Z,123
2018-01-23T09:28:03.138Z,118
2018-01-23T09:29:03.805Z,112
2018-01-23T09:30:04.521Z,112
2018-01-23T09:31:05.136Z,112
2018-01-23T09:32:05.805Z,112
2018-01-23T09:33:06.508Z,112
2018-01-23T09:34:07.179Z,112
2018-01-23T09:35:07.879Z,112
2018-01-23T09:36:08.544Z,112
2018-01-23T09:37:09.212Z,112
2018-01-23T09:38:09.880Z,112
2018-01-23T09:39:10.547Z,112
2018-01-23T09:40:11.213Z,112
2018-01-23T09:41:11.882Z,112
2018-01-23T09:42:12.548Z,112
2018-01-23T09:43:13.215Z,112
2018-01-23T09:44:13.882Z,112
2018-01-23T09:45:14.550Z,118
2018-01-23T09:46:15.215Z,118
2018-01-23T09:47:15.883Z,112
2018-01-23T09:48:16.555Z,112
2018-01-23T09:49:17.219Z,106
2018-01-23T09:50:17.887Z,106
2018-01-23T09:51:18.553Z,106
2018-01-23T09:52:19.221Z,106
2018-01-23T09:53:19.888Z,106
2018-01-23T09:54:20.554Z,101
2018-01-23T09:55:21.221Z,101
2018-01-23T09:56:21.889Z,101
2018-01-23T09:57:22.557Z,95
2018-01-23T09:58:23.271Z,101
2018-01-23T09:59:23.929Z,101
2018-01-23T10:00:24.595Z,101
2018-01-23T10:01:25.262Z,101
2018-01-23T10:02:25.928Z,106
2018-01-23T10:03:26.594Z,106
2018-01-23T10:04:27.261Z,106
2018-01-23T10:05:27.931Z,112
2018-01-23T10:06:28.596Z,106
2018-01-23T10:07:29.264Z,106
2018-01-23T10:08:29.933Z,106
2018-01-23T10:09:30.656Z,106
2018-01-23T10:10:31.268Z,101
2018-01-23T10:11:31.970Z,95
2018-01-23T10:12:32.636Z,95
2018-01-23T10:13:33.308Z,95
2018-01-23T10:14:34.059Z,95
2018-01-23T10:15:34.723Z,95
2018-01-23T10:16:35.390Z,101
2018-01-23T10:17:36.057Z,101
2018-01-23T10:18:36.724Z,101
2018-01-23T10:19:37.391Z,101
2018-01-23T10:20:38.059Z,101
2018-01-23T10:21:38.725Z,101
2018-01-23T10:22:39.396Z,95
2018-01-23T10:23:40.058Z,90
2018-01-23T10:24:40.724Z,90
2018-01-23T10:25:41.391Z,90
2018-01-23T10:26:42.056Z,95
2018-01-23T10:27:42.720Z,95
2018-01-23T10:28:43.422Z,95
2018-01-23T10:29:44.086Z,95
2018-01-23T10:30:44.751Z,101
2018-01-23T10:31:45.417Z,106
2018-01-23T10:32:46.121Z,106
2018-01-23T10:33:46.790Z,106
2018-01-23T10:34:47.456Z,112
2018-01-23T10:35:48.123Z,112
2018-01-23T10:36:48.790Z,112
2018-01-23T10:37:49.457Z,112
2018-01-23T10:38:50.124Z,106
2018-01-23T10:39:50.790Z,112
2018-01-23T10:40:51.456Z,106
2018-01-23T10:41:52.125Z,106
2018-01-23T10:42:52.792Z,101
2018-01-23T10:43:53.459Z,101
2018-01-23T10:44:54.127Z,106
2018-01-23T10:45:54.798Z,106
2018-01-23T10:46:55.461Z,106
2018-01-23T10:47:56.128Z,106
2018-01-23T10:48:56.796Z,106
2018-01-23T10:49:57.465Z,106
2018-01-23T10:50:58.131Z,112
2018-01-23T10:51:58.799Z,106
2018-01-23T10:52:59.501Z,106
2018-01-23T10:54:00.170Z,106
2018-01-23T10:55:00.835Z,106
2018-01-23T10:56:01.501Z,106
2018-01-23T10:57:02.168Z,106
2018-01-23T10:58:02.836Z,106
2018-01-23T10:59:03.506Z,106
2018-01-23T11:00:04.169Z,106
2018-01-23T11:01:04.837Z,106
2018-01-23T11:02:05.506Z,106
2018-01-23T11:03:06.173Z,106
2018-01-23T11:04:06.840Z,101
2018-01-23T11:05:07.516Z,101
2018-01-23T11:06:08.177Z,101
2018-01-23T11:07:08.851Z,101
2018-01-23T11:08:09.515Z,101
2018-01-23T11:09:10.181Z,106
2018-01-23T11:10:10.849Z,112
2018-01-23T11:11:11.514Z,118
2018-01-23T11:12:12.183Z,118
2018-01-23T11:13:12.851Z,118
2018-01-23T11:14:13.517Z,118
2018-01-23T11:15:14.184Z,118
2018-01-23T11:16:14.852Z,118
2018-01-23T11:17:15.518Z,118
2018-01-23T11:18:16.186Z,118
2018-01-23T11:19:16.854Z,118
2018-01-23T11:20:17.523Z,118
2018-01-23T11:21:18.188Z,118
2018-01-23T11:22:18.856Z,118
2018-01-23T11:23:19.524Z,118
2018-01-23T11:24:20.190Z,123
2018-01-23T11:25:20.857Z,118
2018-01-23T11:26:21.523Z,118
2018-01-23T11:27:22.192Z,118
2018-01-23T11:28:22.859Z,118
2018-01-23T11:29:23.525Z,118
2018-01-23T11:30:24.245Z,118
2018-01-23T11:31:24.911Z,106
2018-01-23T11:32:25.578Z,101
2018-01-23T11:33:26.246Z,101
2018-01-23T11:34:26.914Z,101
2018-01-23T11:35:27.581Z,106
2018-01-23T11:36:28.249Z,112
2018-01-23T11:37:28.917Z,112
2018-01-23T11:38:29.587Z,112
2018-01-23T11:39:30.251Z,112
2018-01-23T11:40:30.920Z,112
2018-01-23T11:41:31.589Z,118
2018-01-23T11:42:32.256Z,123
2018-01-23T11:43:32.924Z,118
2018-01-23T11:44:33.592Z,123
2018-01-23T11:45:34.258Z,123
2018-01-23T11:46:34.927Z,123
2018-01-23T11:47:35.593Z,123
2018-01-23T11:48:36.263Z,123
2018-01-23T11:49:36.931Z,123
2018-01-23T11:50:37.598Z,118
2018-01-23T11:51:38.265Z,112
2018-01-23T11:52:38.932Z,101
2018-01-23T11:53:39.597Z,95
2018-01-23T11:54:40.263Z,95
2018-01-23T11:55:40.930Z,95
2018-01-23T11:56:41.598Z,101
2018-01-23T11:57:42.264Z,106
2018-01-23T11:58:42.932Z,106
2018-01-23T11:59:43.602Z,101
2018-01-23T12:00:44.267Z,95
2018-01-23T12:01:44.969Z,90
2018-01-23T12:02:45.636Z,78
2018-01-23T12:03:46.300Z,73
2018-01-23T12:04:46.967Z,78
2018-01-23T12:05:47.634Z,84
2018-01-23T12:06:48.301Z,95
2018-01-23T12:07:48.968Z,112
2018-01-23T12:08:49.636Z,118
2018-01-23T12:09:50.303Z,123
2018-01-23T12:10:50.970Z,123
2018-01-23T12:11:51.637Z,118
2018-01-23T12:12:52.305Z,123
2018-01-23T12:13:52.975Z,123
2018-01-23T12:14:53.640Z,123
2018-01-23T12:15:54.359Z,129
2018-01-23T12:16:55.026Z,129
2018-01-23T12:17:55.691Z,129
2018-01-23T12:18:56.360Z,129
2018-01-23T12:19:57.028Z,129
2018-01-23T12:20:57.696Z,135
2018-01-23T12:21:58.369Z,135
2018-01-23T12:22:59.032Z,135
2018-01-23T12:23:59.698Z,140
2018-01-23T12:25:00.367Z,135
2018-01-23T12:26:01.069Z,135
2018-01-23T12:27:01.736Z,146
2018-01-23T12:28:02.405Z,140
2018-01-23T12:29:03.073Z,157
2018-01-23T12:30:03.740Z,135
2018-01-23T12:31:04.409Z,135
2018-01-23T12:32:05.076Z,135
2018-01-23T12:33:05.743Z,135
2018-01-23T12:34:06.410Z,123
2018-01-23T12:35:07.080Z,118
2018-01-23T12:36:07.749Z,112
2018-01-23T12:37:08.415Z,106
2018-01-23T12:38:09.084Z,106
2018-01-23T12:39:09.751Z,106
2018-01-23T12:40:10.419Z,112
2018-01-23T12:41:11.086Z,112
2018-01-23T12:42:11.753Z,118
2018-01-23T12:43:12.421Z,123
2018-01-23T12:44:13.089Z,118
2018-01-23T12:45:13.756Z,118
2018-01-23T12:46:14.423Z,118
2018-01-23T12:47:15.094Z,123
2018-01-23T12:48:15.760Z,129
2018-01-23T12:49:16.427Z,129
2018-01-23T12:50:17.096Z,129
2018-01-23T12:51:17.766Z,129
2018-01-23T12:52:18.434Z,129
2018-01-23T12:53:19.101Z,129
2018-01-23T12:54:19.769Z,123
2018-01-23T12:55:20.436Z,123
2018-01-23T12:56:21.104Z,112
2018-01-23T12:57:21.772Z,112
2018-01-23T12:58:22.442Z,106
2018-01-23T12:59:23.109Z,101
2018-01-23T13:00:23.776Z,95
2018-01-23T13:01:24.448Z,90
2018-01-23T13:02:25.110Z,90
2018-01-23T13:03:25.777Z,90
2018-01-23T13:04:26.443Z,90
2018-01-23T13:05:27.110Z,95
2018-01-23T13:06:27.815Z,106
2018-01-23T13:07:28.484Z,112
2018-01-23T13:08:29.153Z,112
2018-01-23T13:09:29.876Z,106
2018-01-23T13:10:30.488Z,101
2018-01-23T13:11:31.155Z,101
2018-01-23T13:12:31.822Z,106
2018-01-23T13:13:32.489Z,106
2018-01-23T13:14:33.159Z,106
2018-01-23T13:15:33.827Z,112
2018-01-23T13:16:34.494Z,106
2018-01-23T13:17:35.163Z,106
2018-01-23T13:18:35.834Z,106
2018-01-23T13:19:36.498Z,101
2018-01-23T13:20:37.200Z,90
2018-01-23T13:21:37.865Z,84
2018-01-23T13:22:38.531Z,73
2018-01-23T13:23:39.200Z,73
2018-01-23T13:24:39.868Z,73
2018-01-23T13:25:40.533Z,73
2018-01-23T13:26:41.200Z,73
2018-01-23T13:27:41.867Z,73
2018-01-23T13:28:42.533Z,73
2018-01-23T13:29:43.198Z,67
2018-01-23T13:30:43.865Z,67
2018-01-23T13:31:44.530Z,67
2018-01-23T13:32:45.197Z,61
2018-01-23T13:33:45.864Z,56
2018-01-23T13:34:46.531Z,61
2018-01-23T13:35:47.198Z,56
2018-01-23T13:36:47.865Z,56
2018-01-23T13:37:48.529Z,61
2018-01-23T13:38:49.200Z,56
2018-01-23T13:39:49.863Z,61
2018-01-23T13:40:50.564Z,61
2018-01-23T13:41:51.230Z,61
2018-01-23T13:42:51.897Z,56
2018-01-23T13:43:52.562Z,56
2018-01-23T13:44:53.230Z,50
2018-01-23T13:45:53.897Z,50
2018-01-23T13:46:54.567Z,56
2018-01-23T13:47:55.228Z,50
2018-01-23T13:48:55.900Z,50
2018-01-23T13:49:56.561Z,56
2018-01-23T13:50:57.227Z,56
2018-01-23T13:51:57.893Z,56
2018-01-23T13:52:58.559Z,61
2018-01-23T13:53:59.227Z,61
2018-01-23T13:54:59.892Z,56
2018-01-23T13:56:00.558Z,61
2018-01-23T13:57:01.225Z,67
2018-01-23T13:58:01.892Z,67
2018-01-23T13:59:02.559Z,61
2018-01-23T14:00:03.226Z,61
2018-01-23T14:01:03.889Z,61
2018-01-23T14:02:04.555Z,61
2018-01-23T14:03:05.223Z,61
2018-01-23T14:04:05.894Z,61
2018-01-23T14:05:06.594Z,61
2018-01-23T14:06:07.258Z,67
2018-01-23T14:07:07.924Z,67
2018-01-23T14:08:08.592Z,61
2018-01-23T14:09:09.258Z,61
2018-01-23T14:10:09.924Z,56
2018-01-23T14:11:10.589Z,56
2018-01-23T14:12:11.254Z,50
2018-01-23T14:13:11.920Z,50
2018-01-23T14:14:12.588Z,50
2018-01-23T14:15:13.255Z,50
2018-01-23T14:16:13.922Z,50
2018-01-23T14:17:14.638Z,50
2018-01-23T14:18:15.305Z,56
2018-01-23T14:19:15.971Z,50
2018-01-23T14:20:16.635Z,50
2018-01-23T14:21:17.303Z,45
2018-01-23T14:22:17.970Z,45
2018-01-23T14:23:18.675Z,50
2018-01-23T14:24:19.340Z,56
2018-01-23T14:25:20.006Z,61
2018-01-23T14:26:20.673Z,61
2018-01-23T14:27:21.340Z,61
2018-01-23T14:28:22.003Z,73
2018-01-23T14:29:22.669Z,73
2018-01-23T14:30:23.334Z,73
2018-01-23T14:31:24.003Z,61
2018-01-23T14:32:24.670Z,61
2018-01-23T14:33:25.336Z,61